sensor_id;sensor_type;location;lat;lon;timestamp;pressure;altitude;pressure_sealevel;temperature;humidity
80308;BME280;69616;43.522;1.348;2024-01-30T00:00:22;101268.31;;;12.11;79.19
80308;BME280;69616;43.522;1.348;2024-01-30T00:02:47;101271.81;;;12.10;78.77
80308;BME280;69616;43.522;1.348;2024-01-30T00:05:12;101272.72;;;12.12;79.06
80308;BME280;69616;43.522;1.348;2024-01-30T00:07:38;101270.94;;;12.08;78.92
80308;BME280;69616;43.522;1.348;2024-01-30T00:10:03;101263.88;;;12.03;78.92
80308;BME280;69616;43.522;1.348;2024-01-30T00:12:31;101269.97;;;11.99;79.06
80308;BME280;69616;43.522;1.348;2024-01-30T00:14:57;101263.78;;;11.99;78.93
80308;BME280;69616;43.522;1.348;2024-01-30T00:17:23;101268.19;;;11.95;78.75
80308;BME280;69616;43.522;1.348;2024-01-30T00:19:50;101262.00;;;11.91;78.76
80308;BME280;69616;43.522;1.348;2024-01-30T00:22:15;101263.72;;;11.88;79.00
80308;BME280;69616;43.522;1.348;2024-01-30T00:24:41;101269.00;;;11.85;79.07
80308;BME280;69616;43.522;1.348;2024-01-30T00:27:07;101261.94;;;11.81;78.99
80308;BME280;69616;43.522;1.348;2024-01-30T00:29:32;101263.72;;;11.83;79.19
80308;BME280;69616;43.522;1.348;2024-01-30T00:31:59;101268.09;;;11.80;79.30
80308;BME280;69616;43.522;1.348;2024-01-30T00:34:25;101261.91;;;11.79;78.96
80308;BME280;69616;43.522;1.348;2024-01-30T00:36:50;101253.97;;;11.74;79.22
80308;BME280;69616;43.522;1.348;2024-01-30T00:39:15;101260.13;;;11.73;79.41
80308;BME280;69616;43.522;1.348;2024-01-30T00:41:41;101258.38;;;11.72;79.16
80308;BME280;69616;43.522;1.348;2024-01-30T00:44:06;101260.94;;;11.66;79.73
80308;BME280;69616;43.522;1.348;2024-01-30T00:46:32;101274.09;;;11.63;79.57
80308;BME280;69616;43.522;1.348;2024-01-30T00:48:58;101257.41;;;11.67;79.92
80308;BME280;69616;43.522;1.348;2024-01-30T00:51:23;101253.06;;;11.71;79.52
80308;BME280;69616;43.522;1.348;2024-01-30T00:53:48;101255.72;;;11.72;79.24
80308;BME280;69616;43.522;1.348;2024-01-30T00:56:14;101249.56;;;11.73;79.47
80308;BME280;69616;43.522;1.348;2024-01-30T00:58:43;101253.94;;;11.70;79.63
80308;BME280;69616;43.522;1.348;2024-01-30T01:01:08;101253.97;;;11.71;79.87
80308;BME280;69616;43.522;1.348;2024-01-30T01:03:34;101246.03;;;11.70;79.95
80308;BME280;69616;43.522;1.348;2024-01-30T01:05:59;101253.91;;;11.68;79.70
80308;BME280;69616;43.522;1.348;2024-01-30T01:08:25;101246.91;;;11.70;79.51
80308;BME280;69616;43.522;1.348;2024-01-30T01:10:50;101259.16;;;11.65;79.81
80308;BME280;69616;43.522;1.348;2024-01-30T01:13:16;101254.78;;;11.66;80.07
80308;BME280;69616;43.522;1.348;2024-01-30T01:15:41;101255.66;;;11.69;79.76
80308;BME280;69616;43.522;1.348;2024-01-30T01:18:07;101262.72;;;11.69;79.92
80308;BME280;69616;43.522;1.348;2024-01-30T01:20:32;101267.97;;;11.67;79.78
80308;BME280;69616;43.522;1.348;2024-01-30T01:22:57;101253.03;;;11.69;79.54
80308;BME280;69616;43.522;1.348;2024-01-30T01:25:23;101258.31;;;11.69;79.87
80308;BME280;69616;43.522;1.348;2024-01-30T01:27:48;101258.34;;;11.71;79.76
80308;BME280;69616;43.522;1.348;2024-01-30T01:30:17;101261.84;;;11.67;80.25
80308;BME280;69616;43.522;1.348;2024-01-30T01:32:50;101258.34;;;11.71;79.99
80308;BME280;69616;43.522;1.348;2024-01-30T01:35:23;101267.97;;;11.67;80.44
80308;BME280;69616;43.522;1.348;2024-01-30T01:37:52;101269.78;;;11.71;80.01
80308;BME280;69616;43.522;1.348;2024-01-30T01:40:24;101268.03;;;11.73;80.14
80308;BME280;69616;43.522;1.348;2024-01-30T01:42:51;101273.31;;;11.73;80.33
80308;BME280;69616;43.522;1.348;2024-01-30T01:45:17;101277.75;;;11.77;80.24
80308;BME280;69616;43.522;1.348;2024-01-30T01:47:43;101270.69;;;11.75;80.02
80308;BME280;69616;43.522;1.348;2024-01-30T01:50:12;101272.47;;;11.81;79.86
80308;BME280;69616;43.522;1.348;2024-01-30T01:52:39;101270.72;;;11.81;79.95
80308;BME280;69616;43.522;1.348;2024-01-30T01:55:05;101271.59;;;11.82;79.83
80308;BME280;69616;43.522;1.348;2024-01-30T01:57:31;101261.88;;;11.76;80.13
80308;BME280;69616;43.522;1.348;2024-01-30T01:59:57;101268.94;;;11.80;79.93
80308;BME280;69616;43.522;1.348;2024-01-30T02:02:24;101267.22;;;11.81;80.10
80308;BME280;69616;43.522;1.348;2024-01-30T02:04:51;101265.41;;;11.73;80.04
80308;BME280;69616;43.522;1.348;2024-01-30T02:07:17;101270.72;;;11.80;80.07
80308;BME280;69616;43.522;1.348;2024-01-30T02:09:42;101261.91;;;11.79;80.05
80308;BME280;69616;43.522;1.348;2024-01-30T02:12:08;101265.44;;;11.80;80.11
80308;BME280;69616;43.522;1.348;2024-01-30T02:14:44;101255.75;;;11.75;80.26
80308;BME280;69616;43.522;1.348;2024-01-30T02:17:09;101261.00;;;11.72;80.18
80308;BME280;69616;43.522;1.348;2024-01-30T02:19:35;101257.50;;;11.73;80.39
80308;BME280;69616;43.522;1.348;2024-01-30T02:22:00;101264.53;;;11.74;80.31
80308;BME280;69616;43.522;1.348;2024-01-30T02:24:25;101262.81;;;11.80;79.95
80308;BME280;69616;43.522;1.348;2024-01-30T02:26:51;101259.22;;;11.73;80.16
80308;BME280;69616;43.522;1.348;2024-01-30T02:29:16;101264.53;;;11.79;79.89
80308;BME280;69616;43.522;1.348;2024-01-30T02:31:41;101273.38;;;11.83;79.90
80308;BME280;69616;43.522;1.348;2024-01-30T02:34:07;101275.13;;;11.81;80.01
80308;BME280;69616;43.522;1.348;2024-01-30T02:36:33;101266.34;;;11.83;80.08
80308;BME280;69616;43.522;1.348;2024-01-30T02:38:58;101268.97;;;11.82;80.00
80308;BME280;69616;43.522;1.348;2024-01-30T02:41:24;101268.94;;;11.78;80.01
80308;BME280;69616;43.522;1.348;2024-01-30T02:43:49;101270.75;;;11.83;80.01
80308;BME280;69616;43.522;1.348;2024-01-30T02:46:14;101275.13;;;11.84;79.77
80308;BME280;69616;43.522;1.348;2024-01-30T02:48:40;101264.59;;;11.84;80.00
80308;BME280;69616;43.522;1.348;2024-01-30T02:51:05;101259.34;;;11.85;79.87
80308;BME280;69616;43.522;1.348;2024-01-30T02:53:31;101257.53;;;11.80;80.12
80308;BME280;69616;43.522;1.348;2024-01-30T02:55:56;101264.56;;;11.81;80.39
80308;BME280;69616;43.522;1.348;2024-01-30T02:58:22;101257.50;;;11.81;80.06
80308;BME280;69616;43.522;1.348;2024-01-30T03:00:47;101256.63;;;11.79;79.85
80308;BME280;69616;43.522;1.348;2024-01-30T03:03:12;101264.56;;;11.81;80.26
80308;BME280;69616;43.522;1.348;2024-01-30T03:05:38;101264.56;;;11.81;79.80
80308;BME280;69616;43.522;1.348;2024-01-30T03:08:04;101261.94;;;11.82;79.90
80308;BME280;69616;43.522;1.348;2024-01-30T03:10:30;101262.78;;;11.76;79.82
80308;BME280;69616;43.522;1.348;2024-01-30T03:12:55;101249.59;;;11.76;80.04
80308;BME280;69616;43.522;1.348;2024-01-30T03:15:20;101259.25;;;11.74;79.89
80308;BME280;69616;43.522;1.348;2024-01-30T03:17:46;101254.00;;;11.77;79.72
80308;BME280;69616;43.522;1.348;2024-01-30T03:20:11;101261.06;;;11.82;79.62
80308;BME280;69616;43.522;1.348;2024-01-30T03:22:36;101263.66;;;11.80;79.72
80308;BME280;69616;43.522;1.348;2024-01-30T03:25:02;101261.91;;;11.74;79.75
80308;BME280;69616;43.522;1.348;2024-01-30T03:27:28;101261.91;;;11.79;79.71
80308;BME280;69616;43.522;1.348;2024-01-30T03:29:54;101269.88;;;11.85;79.82
80308;BME280;69616;43.522;1.348;2024-01-30T03:32:19;101274.25;;;11.82;79.95
80308;BME280;69616;43.522;1.348;2024-01-30T03:34:44;101271.59;;;11.78;79.96
80308;BME280;69616;43.522;1.348;2024-01-30T03:37:10;101257.53;;;11.83;79.82
80308;BME280;69616;43.522;1.348;2024-01-30T03:39:35;101276.88;;;11.82;80.00
80308;BME280;69616;43.522;1.348;2024-01-30T03:42:01;101281.34;;;11.87;79.94
80308;BME280;69616;43.522;1.348;2024-01-30T03:44:27;101293.63;;;11.85;79.78
80308;BME280;69616;43.522;1.348;2024-01-30T03:46:52;101288.28;;;11.79;80.04
80308;BME280;69616;43.522;1.348;2024-01-30T03:49:18;101288.34;;;11.82;80.12
80308;BME280;69616;43.522;1.348;2024-01-30T03:51:43;101287.44;;;11.82;79.69
80308;BME280;69616;43.522;1.348;2024-01-30T03:54:09;101286.63;;;11.87;79.65
80308;BME280;69616;43.522;1.348;2024-01-30T03:56:35;101283.09;;;11.88;79.51
80308;BME280;69616;43.522;1.348;2024-01-30T03:59:00;101283.94;;;11.86;79.85
80308;BME280;69616;43.522;1.348;2024-01-30T04:01:27;101283.03;;;11.81;80.16
80308;BME280;69616;43.522;1.348;2024-01-30T04:03:53;101293.63;;;11.84;79.87
80308;BME280;69616;43.522;1.348;2024-01-30T04:06:18;101283.06;;;11.84;79.92
80308;BME280;69616;43.522;1.348;2024-01-30T04:08:44;101289.25;;;11.89;79.67
80308;BME280;69616;43.522;1.348;2024-01-30T04:11:09;101283.97;;;11.89;79.72
80308;BME280;69616;43.522;1.348;2024-01-30T04:13:34;101292.75;;;11.88;79.54
80308;BME280;69616;43.522;1.348;2024-01-30T04:16:01;101285.72;;;11.90;79.78
80308;BME280;69616;43.522;1.348;2024-01-30T04:18:27;101283.09;;;11.90;79.52
80308;BME280;69616;43.522;1.348;2024-01-30T04:20:52;101289.25;;;11.92;79.80
80308;BME280;69616;43.522;1.348;2024-01-30T04:23:18;101292.78;;;11.91;79.54
80308;BME280;69616;43.522;1.348;2024-01-30T04:25:43;101288.38;;;11.85;79.85
80308;BME280;69616;43.522;1.348;2024-01-30T04:28:09;101294.53;;;11.89;79.75
80308;BME280;69616;43.522;1.348;2024-01-30T04:30:37;101294.53;;;11.92;79.50
80308;BME280;69616;43.522;1.348;2024-01-30T04:33:03;101301.56;;;11.90;79.54
80308;BME280;69616;43.522;1.348;2024-01-30T04:35:28;101305.09;;;11.92;79.57
80308;BME280;69616;43.522;1.348;2024-01-30T04:37:54;101312.13;;;11.88;79.58
80308;BME280;69616;43.522;1.348;2024-01-30T04:40:20;101317.41;;;11.88;79.23
80308;BME280;69616;43.522;1.348;2024-01-30T04:42:46;101319.19;;;11.89;79.65
80308;BME280;69616;43.522;1.348;2024-01-30T04:45:12;101326.19;;;11.89;79.62
80308;BME280;69616;43.522;1.348;2024-01-30T04:47:37;101328.84;;;11.89;79.26
80308;BME280;69616;43.522;1.348;2024-01-30T04:50:05;101322.66;;;11.85;79.77
80308;BME280;69616;43.522;1.348;2024-01-30T04:52:31;101326.19;;;11.87;79.54
80308;BME280;69616;43.522;1.348;2024-01-30T04:54:57;101321.78;;;11.83;79.55
80308;BME280;69616;43.522;1.348;2024-01-30T04:57:22;101329.69;;;11.85;79.84
80308;BME280;69616;43.522;1.348;2024-01-30T04:59:48;101327.06;;;11.85;79.41
80308;BME280;69616;43.522;1.348;2024-01-30T05:02:13;101324.41;;;11.85;79.69
80308;BME280;69616;43.522;1.348;2024-01-30T05:04:40;101332.28;;;11.78;79.61
80308;BME280;69616;43.522;1.348;2024-01-30T05:07:06;101337.63;;;11.83;79.57
80308;BME280;69616;43.522;1.348;2024-01-30T05:09:31;101335.78;;;11.79;79.60
80308;BME280;69616;43.522;1.348;2024-01-30T05:11:57;101341.94;;;11.78;79.72
80308;BME280;69616;43.522;1.348;2024-01-30T05:14:23;101347.22;;;11.76;79.39
80308;BME280;69616;43.522;1.348;2024-01-30T05:16:48;101349.00;;;11.77;79.17
80308;BME280;69616;43.522;1.348;2024-01-30T05:19:14;101352.47;;;11.73;79.35
80308;BME280;69616;43.522;1.348;2024-01-30T05:21:40;101361.28;;;11.75;79.40
80308;BME280;69616;43.522;1.348;2024-01-30T05:24:06;101358.59;;;11.71;79.84
80308;BME280;69616;43.522;1.348;2024-01-30T05:26:32;101359.44;;;11.68;79.86
80308;BME280;69616;43.522;1.348;2024-01-30T05:28:57;101363.03;;;11.73;79.66
80308;BME280;69616;43.522;1.348;2024-01-30T05:31:22;101365.66;;;11.72;79.53
80308;BME280;69616;43.522;1.348;2024-01-30T05:33:48;101372.72;;;11.74;79.39
80308;BME280;69616;43.522;1.348;2024-01-30T05:36:14;101362.19;;;11.77;79.60
80308;BME280;69616;43.522;1.348;2024-01-30T05:38:42;101360.41;;;11.73;79.48
80308;BME280;69616;43.522;1.348;2024-01-30T05:41:08;101370.94;;;11.75;79.64
80308;BME280;69616;43.522;1.348;2024-01-30T05:43:33;101363.06;;;11.76;79.63
80308;BME280;69616;43.522;1.348;2024-01-30T05:45:59;101364.81;;;11.77;79.59
80308;BME280;69616;43.522;1.348;2024-01-30T05:48:24;101360.41;;;11.78;79.46
80308;BME280;69616;43.522;1.348;2024-01-30T05:50:50;101360.44;;;11.80;79.56
80308;BME280;69616;43.522;1.348;2024-01-30T05:53:15;101359.56;;;11.77;79.72
80308;BME280;69616;43.522;1.348;2024-01-30T05:55:40;101359.56;;;11.77;79.96
80308;BME280;69616;43.522;1.348;2024-01-30T05:58:06;101357.81;;;11.80;79.74
80308;BME280;69616;43.522;1.348;2024-01-30T06:00:31;101358.69;;;11.78;79.88
80308;BME280;69616;43.522;1.348;2024-01-30T06:02:57;101358.69;;;11.82;79.77
80308;BME280;69616;43.522;1.348;2024-01-30T06:05:22;101363.97;;;11.82;79.74
80308;BME280;69616;43.522;1.348;2024-01-30T06:07:47;101360.47;;;11.83;79.86
80308;BME280;69616;43.522;1.348;2024-01-30T06:10:13;101373.66;;;11.83;79.53
80308;BME280;69616;43.522;1.348;2024-01-30T06:12:38;101381.56;;;11.81;79.93
80308;BME280;69616;43.522;1.348;2024-01-30T06:15:04;101375.38;;;11.79;79.80
80308;BME280;69616;43.522;1.348;2024-01-30T06:17:29;101377.16;;;11.80;79.83
80308;BME280;69616;43.522;1.348;2024-01-30T06:19:55;101380.66;;;11.79;79.95
80308;BME280;69616;43.522;1.348;2024-01-30T06:22:20;101370.06;;;11.76;80.18
80308;BME280;69616;43.522;1.348;2024-01-30T06:24:46;101378.00;;;11.79;80.09
80308;BME280;69616;43.522;1.348;2024-01-30T06:27:14;101378.00;;;11.79;79.87
80308;BME280;69616;43.522;1.348;2024-01-30T06:29:40;101380.66;;;11.77;80.11
80308;BME280;69616;43.522;1.348;2024-01-30T06:32:06;101377.13;;;11.75;79.99
80308;BME280;69616;43.522;1.348;2024-01-30T06:34:31;101380.66;;;11.77;79.79
80308;BME280;69616;43.522;1.348;2024-01-30T06:36:56;101396.47;;;11.74;80.07
80308;BME280;69616;43.522;1.348;2024-01-30T06:39:22;101385.03;;;11.77;79.51
80308;BME280;69616;43.522;1.348;2024-01-30T06:41:48;101391.22;;;11.77;80.16
80308;BME280;69616;43.522;1.348;2024-01-30T06:44:13;101394.69;;;11.73;79.83
80308;BME280;69616;43.522;1.348;2024-01-30T06:46:39;101405.25;;;11.73;80.07
80308;BME280;69616;43.522;1.348;2024-01-30T06:49:04;101407.03;;;11.74;80.12
80308;BME280;69616;43.522;1.348;2024-01-30T06:51:30;101409.63;;;11.73;80.06
80308;BME280;69616;43.522;1.348;2024-01-30T06:53:55;101403.50;;;11.72;79.98
80308;BME280;69616;43.522;1.348;2024-01-30T06:56:21;101410.50;;;11.70;79.85
80308;BME280;69616;43.522;1.348;2024-01-30T06:58:47;101413.97;;;11.66;80.22
80308;BME280;69616;43.522;1.348;2024-01-30T07:01:14;101412.19;;;11.65;79.92
80308;BME280;69616;43.522;1.348;2024-01-30T07:03:40;101411.31;;;11.66;80.12
80308;BME280;69616;43.522;1.348;2024-01-30T07:06:08;101413.97;;;11.66;80.18
80308;BME280;69616;43.522;1.348;2024-01-30T07:08:34;101407.75;;;11.59;80.17
80308;BME280;69616;43.522;1.348;2024-01-30T07:10:59;101409.53;;;11.62;80.04
80308;BME280;69616;43.522;1.348;2024-01-30T07:13:25;101412.16;;;11.62;80.34
80308;BME280;69616;43.522;1.348;2024-01-30T07:15:50;101420.97;;;11.64;80.14
80308;BME280;69616;43.522;1.348;2024-01-30T07:18:15;101415.69;;;11.64;80.28
80308;BME280;69616;43.522;1.348;2024-01-30T07:20:41;101417.47;;;11.63;80.09
80308;BME280;69616;43.522;1.348;2024-01-30T07:23:14;101420.94;;;11.61;80.03
80308;BME280;69616;43.522;1.348;2024-01-30T07:25:41;101426.25;;;11.64;80.22
80308;BME280;69616;43.522;1.348;2024-01-30T07:28:08;101430.66;;;11.65;79.92
80308;BME280;69616;43.522;1.348;2024-01-30T07:30:37;101430.69;;;11.67;80.05
80308;BME280;69616;43.522;1.348;2024-01-30T07:33:03;101434.19;;;11.67;80.03
80308;BME280;69616;43.522;1.348;2024-01-30T07:35:28;101439.41;;;11.61;80.15
80308;BME280;69616;43.522;1.348;2024-01-30T07:37:54;101439.47;;;11.66;79.82
80308;BME280;69616;43.522;1.348;2024-01-30T07:40:19;101441.22;;;11.63;80.04
80308;BME280;69616;43.522;1.348;2024-01-30T07:42:44;101448.28;;;11.68;80.06
80308;BME280;69616;43.522;1.348;2024-01-30T07:45:10;101445.66;;;11.69;79.92
80308;BME280;69616;43.522;1.348;2024-01-30T07:47:35;101454.50;;;11.71;80.21
80308;BME280;69616;43.522;1.348;2024-01-30T07:50:01;101452.75;;;11.73;79.84
80308;BME280;69616;43.522;1.348;2024-01-30T07:52:26;101457.16;;;11.74;80.05
80308;BME280;69616;43.522;1.348;2024-01-30T07:54:51;101461.56;;;11.75;80.09
80308;BME280;69616;43.522;1.348;2024-01-30T07:57:18;101463.34;;;11.76;80.00
80308;BME280;69616;43.522;1.348;2024-01-30T07:59:44;101464.22;;;11.80;80.07
80308;BME280;69616;43.522;1.348;2024-01-30T08:02:10;101474.84;;;11.83;79.93
80308;BME280;69616;43.522;1.348;2024-01-30T08:04:36;101470.44;;;11.84;80.26
80308;BME280;69616;43.522;1.348;2024-01-30T08:07:01;101475.78;;;11.88;79.97
80308;BME280;69616;43.522;1.348;2024-01-30T08:09:27;101476.69;;;11.94;79.91
80308;BME280;69616;43.522;1.348;2024-01-30T08:11:52;101468.84;;;11.98;79.78
80308;BME280;69616;43.522;1.348;2024-01-30T08:14:18;101473.31;;;12.05;79.58
80308;BME280;69616;43.522;1.348;2024-01-30T08:16:43;101468.97;;;12.09;79.61
80308;BME280;69616;43.522;1.348;2024-01-30T08:19:09;101467.22;;;12.13;79.11
80308;BME280;69616;43.522;1.348;2024-01-30T08:21:34;101454.97;;;12.18;79.13
80308;BME280;69616;43.522;1.348;2024-01-30T08:24:03;101455.84;;;12.22;79.22
80308;BME280;69616;43.522;1.348;2024-01-30T08:26:28;101468.19;;;12.21;79.10
80308;BME280;69616;43.522;1.348;2024-01-30T08:28:54;101469.09;;;12.23;79.01
80308;BME280;69616;43.522;1.348;2024-01-30T08:31:19;101477.88;;;12.24;78.94
80308;BME280;69616;43.522;1.348;2024-01-30T08:33:44;101477.88;;;12.22;78.98
80308;BME280;69616;43.522;1.348;2024-01-30T08:36:10;101471.75;;;12.26;78.84
80308;BME280;69616;43.522;1.348;2024-01-30T08:38:35;101459.41;;;12.27;78.82
80308;BME280;69616;43.522;1.348;2024-01-30T08:41:01;101465.63;;;12.30;78.38
80308;BME280;69616;43.522;1.348;2024-01-30T08:43:26;101477.09;;;12.34;78.39
80308;BME280;69616;43.522;1.348;2024-01-30T08:45:51;101470.09;;;12.41;78.27
80308;BME280;69616;43.522;1.348;2024-01-30T08:48:17;101479.88;;;12.51;77.92
80308;BME280;69616;43.522;1.348;2024-01-30T08:50:43;101474.63;;;12.60;77.56
80308;BME280;69616;43.522;1.348;2024-01-30T08:53:08;101476.50;;;12.71;77.45
80308;BME280;69616;43.522;1.348;2024-01-30T08:55:33;101476.56;;;12.83;77.11
80308;BME280;69616;43.522;1.348;2024-01-30T08:57:59;101478.41;;;12.94;76.92
80308;BME280;69616;43.522;1.348;2024-01-30T09:00:24;101477.56;;;13.04;76.47
80308;BME280;69616;43.522;1.348;2024-01-30T09:02:50;101493.50;;;13.18;76.22
80308;BME280;69616;43.522;1.348;2024-01-30T09:05:15;101482.09;;;13.30;75.78
80308;BME280;69616;43.522;1.348;2024-01-30T09:07:41;101492.78;;;13.45;75.47
80308;BME280;69616;43.522;1.348;2024-01-30T09:10:06;101488.38;;;13.52;75.06
80308;BME280;69616;43.522;1.348;2024-01-30T09:12:32;101492.78;;;13.58;75.02
80308;BME280;69616;43.522;1.348;2024-01-30T09:14:57;101501.66;;;13.63;74.40
80308;BME280;69616;43.522;1.348;2024-01-30T09:17:23;101498.13;;;13.69;74.57
80308;BME280;69616;43.522;1.348;2024-01-30T09:19:48;101498.16;;;13.73;74.46
80308;BME280;69616;43.522;1.348;2024-01-30T09:22:13;101503.47;;;13.81;74.17
80308;BME280;69616;43.522;1.348;2024-01-30T09:24:40;101507.00;;;13.83;74.39
80308;BME280;69616;43.522;1.348;2024-01-30T09:27:05;101507.03;;;13.91;73.74
80308;BME280;69616;43.522;1.348;2024-01-30T09:29:31;101505.25;;;14.02;73.73
80308;BME280;69616;43.522;1.348;2024-01-30T09:31:58;101510.56;;;14.05;72.68
80308;BME280;69616;43.522;1.348;2024-01-30T09:34:23;101507.91;;;13.96;71.51
80308;BME280;69616;43.522;1.348;2024-01-30T09:36:48;101507.94;;;14.01;72.18
80308;BME280;69616;43.522;1.348;2024-01-30T09:39:14;101508.78;;;14.01;72.33
80308;BME280;69616;43.522;1.348;2024-01-30T09:41:45;101506.16;;;14.04;71.57
80308;BME280;69616;43.522;1.348;2024-01-30T09:44:16;101509.69;;;14.08;70.19
80308;BME280;69616;43.522;1.348;2024-01-30T09:46:42;101503.53;;;14.17;70.73
80308;BME280;69616;43.522;1.348;2024-01-30T09:49:08;101504.41;;;14.20;70.54
80308;BME280;69616;43.522;1.348;2024-01-30T09:51:35;101511.50;;;14.28;70.56
80308;BME280;69616;43.522;1.348;2024-01-30T09:54:02;101510.59;;;14.33;69.72
80308;BME280;69616;43.522;1.348;2024-01-30T09:56:28;101515.88;;;14.33;69.31
80308;BME280;69616;43.522;1.348;2024-01-30T09:58:54;101517.66;;;14.31;69.25
80308;BME280;69616;43.522;1.348;2024-01-30T10:01:19;101515.88;;;14.30;69.24
80308;BME280;69616;43.522;1.348;2024-01-30T10:03:45;101516.78;;;14.25;68.87
80308;BME280;69616;43.522;1.348;2024-01-30T10:06:11;101512.31;;;14.10;67.91
80308;BME280;69616;43.522;1.348;2024-01-30T10:08:37;101510.56;;;14.09;68.16
80308;BME280;69616;43.522;1.348;2024-01-30T10:11:03;101509.69;;;14.11;68.29
80308;BME280;69616;43.522;1.348;2024-01-30T10:13:28;101505.31;;;14.26;68.59
80308;BME280;69616;43.522;1.348;2024-01-30T10:15:54;101506.16;;;14.32;68.28
80308;BME280;69616;43.522;1.348;2024-01-30T10:18:22;101504.41;;;14.53;67.84
80308;BME280;69616;43.522;1.348;2024-01-30T10:20:47;101498.22;;;14.67;67.39
80308;BME280;69616;43.522;1.348;2024-01-30T10:23:13;101495.56;;;14.70;66.25
80308;BME280;69616;43.522;1.348;2024-01-30T10:25:38;101496.44;;;14.81;66.41
80308;BME280;69616;43.522;1.348;2024-01-30T10:28:04;101494.69;;;14.89;66.56
80308;BME280;69616;43.522;1.348;2024-01-30T10:30:29;101494.66;;;14.96;66.10
80308;BME280;69616;43.522;1.348;2024-01-30T10:32:55;101494.66;;;15.03;66.27
80308;BME280;69616;43.522;1.348;2024-01-30T10:35:20;101497.25;;;15.14;66.10
80308;BME280;69616;43.522;1.348;2024-01-30T10:37:49;101494.56;;;15.24;65.40
80308;BME280;69616;43.522;1.348;2024-01-30T10:40:15;101483.94;;;15.27;65.15
80308;BME280;69616;43.522;1.348;2024-01-30T10:42:44;101487.47;;;15.29;64.22
80308;BME280;69616;43.522;1.348;2024-01-30T10:45:14;101484.81;;;15.32;64.27
80308;BME280;69616;43.522;1.348;2024-01-30T10:47:53;101480.41;;;15.34;64.33
80308;BME280;69616;43.522;1.348;2024-01-30T10:50:20;101474.19;;;15.38;64.03
80308;BME280;69616;43.522;1.348;2024-01-30T10:52:46;101478.56;;;15.45;63.28
80308;BME280;69616;43.522;1.348;2024-01-30T10:55:13;101482.06;;;15.50;63.86
80308;BME280;69616;43.522;1.348;2024-01-30T10:57:40;101483.84;;;15.53;64.10
80308;BME280;69616;43.522;1.348;2024-01-30T11:00:08;101482.03;;;15.60;64.04
80308;BME280;69616;43.522;1.348;2024-01-30T11:02:41;101476.69;;;15.63;63.64
80308;BME280;69616;43.522;1.348;2024-01-30T11:05:09;101473.97;;;15.77;64.03
80308;BME280;69616;43.522;1.348;2024-01-30T11:07:35;101473.03;;;15.89;63.85
80308;BME280;69616;43.522;1.348;2024-01-30T11:10:02;101478.31;;;15.93;63.43
80308;BME280;69616;43.522;1.348;2024-01-30T11:12:30;101476.50;;;15.97;63.16
80308;BME280;69616;43.522;1.348;2024-01-30T11:15:09;101471.16;;;16.02;62.45
80308;BME280;69616;43.522;1.348;2024-01-30T11:20:21;101450.66;;;16.23;62.43
80308;BME280;69616;43.522;1.348;2024-01-30T11:22:48;101459.47;;;16.25;62.38
80308;BME280;69616;43.522;1.348;2024-01-30T11:25:15;101457.66;;;16.30;62.95
80308;BME280;69616;43.522;1.348;2024-01-30T11:27:45;101450.59;;;16.29;62.34
80308;BME280;69616;43.522;1.348;2024-01-30T11:30:30;101456.03;;;16.16;62.38
80308;BME280;69616;43.522;1.348;2024-01-30T11:33:12;101444.41;;;16.25;62.44
80308;BME280;69616;43.522;1.348;2024-01-30T11:35:42;101446.97;;;16.36;62.19
80308;BME280;69616;43.522;1.348;2024-01-30T11:38:10;101447.84;;;16.36;61.12
80308;BME280;69616;43.522;1.348;2024-01-30T11:40:37;101439.84;;;16.40;61.64
80308;BME280;69616;43.522;1.348;2024-01-30T11:43:04;101445.09;;;16.46;61.44
80308;BME280;69616;43.522;1.348;2024-01-30T11:45:31;101455.63;;;16.57;61.26
80308;BME280;69616;43.522;1.348;2024-01-30T11:47:57;101452.00;;;16.65;60.85
80308;BME280;69616;43.522;1.348;2024-01-30T11:50:24;101446.66;;;16.69;60.33
80308;BME280;69616;43.522;1.348;2024-01-30T11:52:50;101436.84;;;16.74;60.10
80308;BME280;69616;43.522;1.348;2024-01-30T11:55:15;101435.81;;;16.86;60.61
80308;BME280;69616;43.522;1.348;2024-01-30T11:57:42;101430.41;;;16.93;60.17
80308;BME280;69616;43.522;1.348;2024-01-30T12:00:17;101431.31;;;16.94;60.42
80308;BME280;69616;43.522;1.348;2024-01-30T12:02:53;101425.00;;;17.04;59.67
80308;BME280;69616;43.522;1.348;2024-01-30T12:05:24;101420.34;;;17.20;60.20
80308;BME280;69616;43.522;1.348;2024-01-30T12:07:50;101422.91;;;17.30;60.18
80308;BME280;69616;43.522;1.348;2024-01-30T12:10:16;101413.88;;;17.42;59.91
80308;BME280;69616;43.522;1.348;2024-01-30T12:12:46;101410.97;;;17.59;59.70
80308;BME280;69616;43.522;1.348;2024-01-30T12:15:12;101413.47;;;17.68;58.81
80308;BME280;69616;43.522;1.348;2024-01-30T12:17:38;101404.63;;;17.66;58.29
80308;BME280;69616;43.522;1.348;2024-01-30T12:20:08;101396.75;;;17.60;57.94
80308;BME280;69616;43.522;1.348;2024-01-30T12:22:38;101398.44;;;17.64;57.92
80308;BME280;69616;43.522;1.348;2024-01-30T12:25:08;101399.19;;;17.72;57.85
80308;BME280;69616;43.522;1.348;2024-01-30T12:27:35;101396.63;;;17.66;58.32
80308;BME280;69616;43.522;1.348;2024-01-30T12:30:00;101385.19;;;17.59;58.07
80308;BME280;69616;43.522;1.348;2024-01-30T12:32:26;101393.16;;;17.61;57.28
80308;BME280;69616;43.522;1.348;2024-01-30T12:34:55;101388.69;;;17.64;56.53
80308;BME280;69616;43.522;1.348;2024-01-30T12:37:22;101385.00;;;17.72;57.24
80308;BME280;69616;43.522;1.348;2024-01-30T12:39:49;101379.47;;;17.86;57.05
80308;BME280;69616;43.522;1.348;2024-01-30T12:42:16;101383.81;;;17.90;57.12
80308;BME280;69616;43.522;1.348;2024-01-30T12:44:41;101380.19;;;17.97;57.05
80308;BME280;69616;43.522;1.348;2024-01-30T12:47:08;101371.97;;;18.11;56.98